sensor_id;sensor_type;location;lat;lon;timestamp;temperature;humidity
6879;DHT22;3478;51.462;7.338;2022-12-07T00:03:52;4.90;99.90
6879;DHT22;3478;51.462;7.338;2022-12-07T00:08:54;4.90;99.90
6879;DHT22;3478;51.462;7.338;2022-12-07T00:14:00;4.90;99.90
6879;DHT22;3478;51.462;7.338;2022-12-07T00:19:03;4.90;99.90
6879;DHT22;3478;51.462;7.338;2022-12-07T00:24:05;4.90;99.90
6879;DHT22;3478;51.462;7.338;2022-12-07T00:29:13;4.90;99.90
6879;DHT22;3478;51.462;7.338;2022-12-07T00:34:17;4.90;99.90
6879;DHT22;3478;51.462;7.338;2022-12-07T00:39:19;5.00;99.90
6879;DHT22;3478;51.462;7.338;2022-12-07T00:44:22;5.00;99.90
6879;DHT22;3478;51.462;7.338;2022-12-07T00:49:24;5.00;99.90
6879;DHT22;3478;51.462;7.338;2022-12-07T00:54:26;5.00;99.90
6879;DHT22;3478;51.462;7.338;2022-12-07T00:59:29;5.00;99.90
6879;DHT22;3478;51.462;7.338;2022-12-07T01:04:33;5.00;99.90
6879;DHT22;3478;51.462;7.338;2022-12-07T01:09:35;5.00;99.90
6879;DHT22;3478;51.462;7.338;2022-12-07T01:14:38;5.00;99.90
6879;DHT22;3478;51.462;7.338;2022-12-07T01:19:40;5.00;99.90
6879;DHT22;3478;51.462;7.338;2022-12-07T01:24:42;5.00;99.90
6879;DHT22;3478;51.462;7.338;2022-12-07T01:29:45;5.00;99.90
6879;DHT22;3478;51.462;7.338;2022-12-07T01:34:47;5.00;99.90
6879;DHT22;3478;51.462;7.338;2022-12-07T01:39:50;5.00;99.90
6879;DHT22;3478;51.462;7.338;2022-12-07T01:50:32;5.10;99.90
6879;DHT22;3478;51.462;7.338;2022-12-07T01:55:35;5.20;99.90
6879;DHT22;3478;51.462;7.338;2022-12-07T02:00:39;5.10;99.90
6879;DHT22;3478;51.462;7.338;2022-12-07T02:05:44;5.10;99.90
6879;DHT22;3478;51.462;7.338;2022-12-07T02:10:46;5.10;99.90
6879;DHT22;3478;51.462;7.338;2022-12-07T02:16:08;5.10;99.90
6879;DHT22;3478;51.462;7.338;2022-12-07T02:21:16;5.10;99.90
6879;DHT22;3478;51.462;7.338;2022-12-07T02:32:02;5.10;99.90
6879;DHT22;3478;51.462;7.338;2022-12-07T02:37:11;5.10;99.90
6879;DHT22;3478;51.462;7.338;2022-12-07T02:42:19;5.00;99.90
6879;DHT22;3478;51.462;7.338;2022-12-07T02:47:26;5.00;99.90
6879;DHT22;3478;51.462;7.338;2022-12-07T02:52:29;5.00;99.90
6879;DHT22;3478;51.462;7.338;2022-12-07T02:57:46;5.00;99.90
6879;DHT22;3478;51.462;7.338;2022-12-07T03:02:54;5.00;99.90
6879;DHT22;3478;51.462;7.338;2022-12-07T03:08:00;4.90;99.90
6879;DHT22;3478;51.462;7.338;2022-12-07T03:13:09;4.90;99.90
6879;DHT22;3478;51.462;7.338;2022-12-07T03:18:17;4.90;99.90
6879;DHT22;3478;51.462;7.338;2022-12-07T03:23:21;4.90;99.90
6879;DHT22;3478;51.462;7.338;2022-12-07T03:28:26;4.80;99.90
6879;DHT22;3478;51.462;7.338;2022-12-07T03:33:36;4.90;99.90
6879;DHT22;3478;51.462;7.338;2022-12-07T03:38:42;4.80;99.90
6879;DHT22;3478;51.462;7.338;2022-12-07T03:43:46;4.70;99.90
6879;DHT22;3478;51.462;7.338;2022-12-07T03:48:56;4.70;99.90
6879;DHT22;3478;51.462;7.338;2022-12-07T03:54:05;4.60;99.90
6879;DHT22;3478;51.462;7.338;2022-12-07T03:59:09;4.50;99.90
6879;DHT22;3478;51.462;7.338;2022-12-07T04:04:13;4.50;99.90
6879;DHT22;3478;51.462;7.338;2022-12-07T04:09:15;4.60;99.90
6879;DHT22;3478;51.462;7.338;2022-12-07T04:14:17;4.60;99.90
6879;DHT22;3478;51.462;7.338;2022-12-07T04:19:25;4.60;99.90
6879;DHT22;3478;51.462;7.338;2022-12-07T04:24:28;4.60;99.90
6879;DHT22;3478;51.462;7.338;2022-12-07T04:29:30;4.60;99.90
6879;DHT22;3478;51.462;7.338;2022-12-07T04:34:33;4.60;99.90
6879;DHT22;3478;51.462;7.338;2022-12-07T04:39:35;4.50;99.90
6879;DHT22;3478;51.462;7.338;2022-12-07T04:44:37;4.50;99.90
6879;DHT22;3478;51.462;7.338;2022-12-07T04:49:40;4.60;99.90
6879;DHT22;3478;51.462;7.338;2022-12-07T04:54:42;4.50;99.90
6879;DHT22;3478;51.462;7.338;2022-12-07T04:59:44;4.50;99.90
6879;DHT22;3478;51.462;7.338;2022-12-07T05:04:47;4.50;99.90
6879;DHT22;3478;51.462;7.338;2022-12-07T05:09:49;4.50;99.90
6879;DHT22;3478;51.462;7.338;2022-12-07T05:14:50;4.50;99.90
6879;DHT22;3478;51.462;7.338;2022-12-07T05:19:54;4.50;99.90
6879;DHT22;3478;51.462;7.338;2022-12-07T05:24:55;4.40;99.90
6879;DHT22;3478;51.462;7.338;2022-12-07T05:29:57;4.40;99.90
6879;DHT22;3478;51.462;7.338;2022-12-07T05:35:00;4.40;99.90
6879;DHT22;3478;51.462;7.338;2022-12-07T05:40:03;4.40;99.90
6879;DHT22;3478;51.462;7.338;2022-12-07T05:45:06;4.40;99.90
6879;DHT22;3478;51.462;7.338;2022-12-07T05:50:10;4.30;99.90
6879;DHT22;3478;51.462;7.338;2022-12-07T05:55:12;4.30;99.90
6879;DHT22;3478;51.462;7.338;2022-12-07T06:00:15;4.30;99.90
6879;DHT22;3478;51.462;7.338;2022-12-07T06:05:18;4.30;99.90
6879;DHT22;3478;51.462;7.338;2022-12-07T06:10:20;4.30;99.90
6879;DHT22;3478;51.462;7.338;2022-12-07T06:15:22;4.30;99.90
6879;DHT22;3478;51.462;7.338;2022-12-07T06:20:25;4.30;99.90
6879;DHT22;3478;51.462;7.338;2022-12-07T06:25:27;4.30;99.90
6879;DHT22;3478;51.462;7.338;2022-12-07T06:30:29;4.30;99.90
6879;DHT22;3478;51.462;7.338;2022-12-07T06:35:33;4.30;99.90
6879;DHT22;3478;51.462;7.338;2022-12-07T06:40:35;4.30;99.90
6879;DHT22;3478;51.462;7.338;2022-12-07T06:45:37;4.30;99.90
6879;DHT22;3478;51.462;7.338;2022-12-07T06:50:40;4.30;99.90
6879;DHT22;3478;51.462;7.338;2022-12-07T06:55:42;4.30;99.90
6879;DHT22;3478;51.462;7.338;2022-12-07T07:00:44;4.20;99.90
6879;DHT22;3478;51.462;7.338;2022-12-07T07:05:47;4.20;99.90
6879;DHT22;3478;51.462;7.338;2022-12-07T07:10:49;4.20;99.90
6879;DHT22;3478;51.462;7.338;2022-12-07T07:15:51;4.20;99.90
6879;DHT22;3478;51.462;7.338;2022-12-07T07:20:55;4.20;99.90
6879;DHT22;3478;51.462;7.338;2022-12-07T07:25:57;4.20;99.90
6879;DHT22;3478;51.462;7.338;2022-12-07T07:30:58;4.20;99.90
6879;DHT22;3478;51.462;7.338;2022-12-07T07:36:02;4.20;99.90
6879;DHT22;3478;51.462;7.338;2022-12-07T07:41:04;4.20;99.90
6879;DHT22;3478;51.462;7.338;2022-12-07T07:46:06;4.20;99.90
6879;DHT22;3478;51.462;7.338;2022-12-07T07:51:09;4.30;99.90
6879;DHT22;3478;51.462;7.338;2022-12-07T07:56:11;4.30;99.90
6879;DHT22;3478;51.462;7.338;2022-12-07T08:01:12;4.30;99.90
6879;DHT22;3478;51.462;7.338;2022-12-07T08:06:16;4.20;99.90
6879;DHT22;3478;51.462;7.338;2022-12-07T08:11:18;4.20;99.90
6879;DHT22;3478;51.462;7.338;2022-12-07T08:16:20;4.20;99.90
6879;DHT22;3478;51.462;7.338;2022-12-07T08:21:23;4.10;99.90
6879;DHT22;3478;51.462;7.338;2022-12-07T08:26:25;4.20;99.90
6879;DHT22;3478;51.462;7.338;2022-12-07T08:31:28;4.30;99.90
6879;DHT22;3478;51.462;7.338;2022-12-07T08:36:31;4.20;99.90
6879;DHT22;3478;51.462;7.338;2022-12-07T08:41:32;4.30;99.90
6879;DHT22;3478;51.462;7.338;2022-12-07T08:46:37;4.30;99.90
6879;DHT22;3478;51.462;7.338;2022-12-07T08:51:41;4.40;99.90
6879;DHT22;3478;51.462;7.338;2022-12-07T08:56:44;4.50;99.90
6879;DHT22;3478;51.462;7.338;2022-12-07T09:01:46;4.70;99.90
6879;DHT22;3478;51.462;7.338;2022-12-07T09:06:50;4.70;99.90
6879;DHT22;3478;51.462;7.338;2022-12-07T09:11:52;4.80;99.90
6879;DHT22;3478;51.462;7.338;2022-12-07T09:16:54;4.80;99.90
6879;DHT22;3478;51.462;7.338;2022-12-07T09:21:57;4.80;99.90
6879;DHT22;3478;51.462;7.338;2022-12-07T09:26:59;4.70;99.90
6879;DHT22;3478;51.462;7.338;2022-12-07T09:32:01;4.90;99.90
6879;DHT22;3478;51.462;7.338;2022-12-07T09:37:04;5.00;99.90
6879;DHT22;3478;51.462;7.338;2022-12-07T09:42:07;5.10;99.90
6879;DHT22;3478;51.462;7.338;2022-12-07T09:47:11;5.10;99.90
6879;DHT22;3478;51.462;7.338;2022-12-07T09:52:20;5.10;99.90
6879;DHT22;3478;51.462;7.338;2022-12-07T09:57:29;5.10;99.90
6879;DHT22;3478;51.462;7.338;2022-12-07T10:02:36;5.00;99.90
6879;DHT22;3478;51.462;7.338;2022-12-07T10:07:39;5.00;99.90
6879;DHT22;3478;51.462;7.338;2022-12-07T10:12:56;5.10;99.90
6879;DHT22;3478;51.462;7.338;2022-12-07T10:17:58;5.10;99.90
6879;DHT22;3478;51.462;7.338;2022-12-07T10:23:04;5.20;99.90
6879;DHT22;3478;51.462;7.338;2022-12-07T10:28:15;5.30;99.90
6879;DHT22;3478;51.462;7.338;2022-12-07T10:33:32;5.20;99.90
6879;DHT22;3478;51.462;7.338;2022-12-07T10:38:44;5.20;99.90
6879;DHT22;3478;51.462;7.338;2022-12-07T10:43:51;5.20;99.90
6879;DHT22;3478;51.462;7.338;2022-12-07T10:49:00;5.30;99.90
6879;DHT22;3478;51.462;7.338;2022-12-07T10:54:12;5.70;99.90
6879;DHT22;3478;51.462;7.338;2022-12-07T11:04:58;5.60;99.90
6879;DHT22;3478;51.462;7.338;2022-12-07T11:10:07;5.60;99.90
6879;DHT22;3478;51.462;7.338;2022-12-07T11:15:15;5.60;99.90
6879;DHT22;3478;51.462;7.338;2022-12-07T11:20:34;5.70;99.90
6879;DHT22;3478;51.462;7.338;2022-12-07T11:25:44;5.60;99.90
6879;DHT22;3478;51.462;7.338;2022-12-07T11:30:54;5.50;99.90
6879;DHT22;3478;51.462;7.338;2022-12-07T11:36:06;5.50;99.90
6879;DHT22;3478;51.462;7.338;2022-12-07T11:41:12;5.60;99.90
6879;DHT22;3478;51.462;7.338;2022-12-07T11:46:16;5.70;99.90
6879;DHT22;3478;51.462;7.338;2022-12-07T11:51:20;5.80;99.90
6879;DHT22;3478;51.462;7.338;2022-12-07T11:56:26;5.90;99.90
6879;DHT22;3478;51.462;7.338;2022-12-07T12:01:44;5.90;99.90
6879;DHT22;3478;51.462;7.338;2022-12-07T12:06:48;5.80;99.90
6879;DHT22;3478;51.462;7.338;2022-12-07T12:17:47;5.90;99.90
6879;DHT22;3478;51.462;7.338;2022-12-07T12:22:55;5.80;99.90
6879;DHT22;3478;51.462;7.338;2022-12-07T12:28:01;5.70;99.90
6879;DHT22;3478;51.462;7.338;2022-12-07T12:33:06;5.80;99.90
6879;DHT22;3478;51.462;7.338;2022-12-07T12:38:32;5.90;99.90
6879;DHT22;3478;51.462;7.338;2022-12-07T12:43:45;5.80;99.90
6879;DHT22;3478;51.462;7.338;2022-12-07T12:48:49;5.80;99.90
6879;DHT22;3478;51.462;7.338;2022-12-07T12:53:51;5.90;99.90
6879;DHT22;3478;51.462;7.338;2022-12-07T12:59:25;6.00;99.90
6879;DHT22;3478;51.462;7.338;2022-12-07T13:09:53;5.90;99.90
6879;DHT22;3478;51.462;7.338;2022-12-07T13:14:58;6.00;99.90
6879;DHT22;3478;51.462;7.338;2022-12-07T13:20:00;5.90;99.90
6879;DHT22;3478;51.462;7.338;2022-12-07T13:25:07;6.00;99.90
6879;DHT22;3478;51.462;7.338;2022-12-07T13:30:17;5.90;99.90
6879;DHT22;3478;51.462;7.338;2022-12-07T13:35:30;5.90;99.90
6879;DHT22;3478;51.462;7.338;2022-12-07T13:40:32;5.90;99.90
6879;DHT22;3478;51.462;7.338;2022-12-07T13:45:36;5.80;99.90
6879;DHT22;3478;51.462;7.338;2022-12-07T13:50:53;5.80;99.90
6879;DHT22;3478;51.462;7.338;2022-12-07T13:55:57;5.90;99.90
6879;DHT22;3478;51.462;7.338;2022-12-07T14:01:00;5.90;99.90
6879;DHT22;3478;51.462;7.338;2022-12-07T14:06:29;6.00;99.90
6879;DHT22;3478;51.462;7.338;2022-12-07T14:11:31;5.80;99.90
6879;DHT22;3478;51.462;7.338;2022-12-07T14:16:36;5.80;99.90
6879;DHT22;3478;51.462;7.338;2022-12-07T14:21:39;5.60;99.90
6879;DHT22;3478;51.462;7.338;2022-12-07T14:26:41;5.30;99.90
6879;DHT22;3478;51.462;7.338;2022-12-07T14:31:44;5.00;99.90
6879;DHT22;3478;51.462;7.338;2022-12-07T14:36:46;4.90;99.90
6879;DHT22;3478;51.462;7.338;2022-12-07T14:41:48;4.80;99.90
6879;DHT22;3478;51.462;7.338;2022-12-07T14:46:54;4.80;99.90
6879;DHT22;3478;51.462;7.338;2022-12-07T14:51:56;4.80;99.90
6879;DHT22;3478;51.462;7.338;2022-12-07T14:56:58;4.70;99.90
6879;DHT22;3478;51.462;7.338;2022-12-07T15:02:01;4.60;99.90
6879;DHT22;3478;51.462;7.338;2022-12-07T15:07:05;4.60;99.90
6879;DHT22;3478;51.462;7.338;2022-12-07T15:12:07;4.50;99.90
6879;DHT22;3478;51.462;7.338;2022-12-07T15:17:11;4.40;99.90
6879;DHT22;3478;51.462;7.338;2022-12-07T15:22:13;4.40;99.90
6879;DHT22;3478;51.462;7.338;2022-12-07T15:27:15;4.40;99.90
6879;DHT22;3478;51.462;7.338;2022-12-07T15:32:18;4.40;99.90
6879;DHT22;3478;51.462;7.338;2022-12-07T15:37:20;4.40;99.90
6879;DHT22;3478;51.462;7.338;2022-12-07T15:42:22;4.40;99.90
6879;DHT22;3478;51.462;7.338;2022-12-07T15:47:25;4.40;99.90
6879;DHT22;3478;51.462;7.338;2022-12-07T15:52:27;4.40;99.90
6879;DHT22;3478;51.462;7.338;2022-12-07T15:57:29;4.40;99.90
6879;DHT22;3478;51.462;7.338;2022-12-07T16:02:32;4.40;99.90
6879;DHT22;3478;51.462;7.338;2022-12-07T16:07:34;4.40;99.90
6879;DHT22;3478;51.462;7.338;2022-12-07T16:12:35;4.40;99.90
6879;DHT22;3478;51.462;7.338;2022-12-07T16:17:39;4.40;99.90
6879;DHT22;3478;51.462;7.338;2022-12-07T16:22:40;4.40;99.90
6879;DHT22;3478;51.462;7.338;2022-12-07T16:27:42;4.40;99.90
6879;DHT22;3478;51.462;7.338;2022-12-07T16:32:45;4.40;99.90
6879;DHT22;3478;51.462;7.338;2022-12-07T16:37:47;4.40;99.90
6879;DHT22;3478;51.462;7.338;2022-12-07T16:42:49;4.40;99.90
6879;DHT22;3478;51.462;7.338;2022-12-07T16:47:53;4.40;99.90
6879;DHT22;3478;51.462;7.338;2022-12-07T16:52:54;4.50;99.90
6879;DHT22;3478;51.462;7.338;2022-12-07T16:57:56;4.50;99.90
6879;DHT22;3478;51.462;7.338;2022-12-07T17:03:00;4.50;99.90
6879;DHT22;3478;51.462;7.338;2022-12-07T17:08:02;4.50;99.90
6879;DHT22;3478;51.462;7.338;2022-12-07T17:13:05;4.50;99.90
6879;DHT22;3478;51.462;7.338;2022-12-07T17:18:29;4.60;99.90
6879;DHT22;3478;51.462;7.338;2022-12-07T17:23:33;4.60;99.90
6879;DHT22;3478;51.462;7.338;2022-12-07T17:28:36;4.60;99.90
6879;DHT22;3478;51.462;7.338;2022-12-07T17:33:39;4.50;99.90
6879;DHT22;3478;51.462;7.338;2022-12-07T17:38:41;4.60;99.90
6879;DHT22;3478;51.462;7.338;2022-12-07T17:43:43;4.60;99.90
6879;DHT22;3478;51.462;7.338;2022-12-07T17:48:46;4.70;99.90
6879;DHT22;3478;51.462;7.338;2022-12-07T17:53:49;4.70;99.90
6879;DHT22;3478;51.462;7.338;2022-12-07T17:58:51;4.70;99.90
6879;DHT22;3478;51.462;7.338;2022-12-07T18:03:54;4.70;99.90
6879;DHT22;3478;51.462;7.338;2022-12-07T18:08:56;4.60;99.90
6879;DHT22;3478;51.462;7.338;2022-12-07T18:13:58;4.60;99.90
6879;DHT22;3478;51.462;7.338;2022-12-07T18:19:03;4.50;99.90
6879;DHT22;3478;51.462;7.338;2022-12-07T18:24:08;4.60;99.90
6879;DHT22;3478;51.462;7.338;2022-12-07T18:29:13;4.50;99.90
6879;DHT22;3478;51.462;7.338;2022-12-07T18:34:17;4.60;99.90
6879;DHT22;3478;51.462;7.338;2022-12-07T18:39:19;4.50;99.90
6879;DHT22;3478;51.462;7.338;2022-12-07T18:44:21;4.50;99.90
6879;DHT22;3478;51.462;7.338;2022-12-07T18:49:24;4.50;99.90
6879;DHT22;3478;51.462;7.338;2022-12-07T18:54:26;4.50;99.90
6879;DHT22;3478;51.462;7.338;2022-12-07T18:59:28;4.50;99.90
6879;DHT22;3478;51.462;7.338;2022-12-07T19:04:54;4.50;99.90
6879;DHT22;3478;51.462;7.338;2022-12-07T19:09:56;4.50;99.90
6879;DHT22;3478;51.462;7.338;2022-12-07T19:14:58;4.50;99.90
6879;DHT22;3478;51.462;7.338;2022-12-07T19:20:02;4.50;99.90
6879;DHT22;3478;51.462;7.338;2022-12-07T19:25:05;4.50;99.90
6879;DHT22;3478;51.462;7.338;2022-12-07T19:30:08;4.40;99.90
6879;DHT22;3478;51.462;7.338;2022-12-07T19:35:12;4.40;99.90
6879;DHT22;3478;51.462;7.338;2022-12-07T19:40:14;4.40;99.90
6879;DHT22;3478;51.462;7.338;2022-12-07T19:45:16;4.40;99.90
6879;DHT22;3478;51.462;7.338;2022-12-07T19:50:19;4.40;99.90
6879;DHT22;3478;51.462;7.338;2022-12-07T19:55:21;4.40;99.90
6879;DHT22;3478;51.462;7.338;2022-12-07T20:00:22;4.50;99.90
6879;DHT22;3478;51.462;7.338;2022-12-07T20:05:26;4.50;99.90
6879;DHT22;3478;51.462;7.338;2022-12-07T20:10:27;4.60;99.90
6879;DHT22;3478;51.462;7.338;2022-12-07T20:15:29;4.50;99.90
6879;DHT22;3478;51.462;7.338;2022-12-07T20:20:33;4.50;99.90
6879;DHT22;3478;51.462;7.338;2022-12-07T20:25:34;4.50;99.90
6879;DHT22;3478;51.462;7.338;2022-12-07T20:30:37;4.40;99.90
6879;DHT22;3478;51.462;7.338;2022-12-07T20:35:40;4.40;99.90
6879;DHT22;3478;51.462;7.338;2022-12-07T20:40:46;4.50;99.90
6879;DHT22;3478;51.462;7.338;2022-12-07T20:45:48;4.50;99.90
6879;DHT22;3478;51.462;7.338;2022-12-07T20:50:52;4.40;99.90
6879;DHT22;3478;51.462;7.338;2022-12-07T20:55:54;4.50;99.90
6879;DHT22;3478;51.462;7.338;2022-12-07T21:00:59;4.50;99.90
6879;DHT22;3478;51.462;7.338;2022-12-07T21:06:02;4.50;99.90
6879;DHT22;3478;51.462;7.338;2022-12-07T21:11:07;4.50;99.90
6879;DHT22;3478;51.462;7.338;2022-12-07T21:16:11;4.50;99.90
6879;DHT22;3478;51.462;7.338;2022-12-07T21:21:17;4.40;99.90
6879;DHT22;3478;51.462;7.338;2022-12-07T21:26:21;4.40;99.90
6879;DHT22;3478;51.462;7.338;2022-12-07T21:31:24;4.40;99.90
6879;DHT22;3478;51.462;7.338;2022-12-07T21:36:27;4.40;99.90
6879;DHT22;3478;51.462;7.338;2022-12-07T21:41:30;4.30;99.90
6879;DHT22;3478;51.462;7.338;2022-12-07T21:46:33;4.30;99.90
6879;DHT22;3478;51.462;7.338;2022-12-07T21:51:37;4.30;99.90
6879;DHT22;3478;51.462;7.338;2022-12-07T21:56:40;4.30;99.90
6879;DHT22;3478;51.462;7.338;2022-12-07T22:01:44;4.20;99.90
6879;DHT22;3478;51.462;7.338;2022-12-07T22:06:49;4.30;99.90
6879;DHT22;3478;51.462;7.338;2022-12-07T22:11:51;4.20;99.90
6879;DHT22;3478;51.462;7.338;2022-12-07T22:16:53;4.20;99.90
6879;DHT22;3478;51.462;7.338;2022-12-07T22:21:56;4.20;99.90
6879;DHT22;3478;51.462;7.338;2022-12-07T22:26:58;4.20;99.90
6879;DHT22;3478;51.462;7.338;2022-12-07T22:32:00;4.30;99.90
6879;DHT22;3478;51.462;7.338;2022-12-07T22:37:03;4.30;99.90
6879;DHT22;3478;51.462;7.338;2022-12-07T22:42:05;4.20;99.90
6879;DHT22;3478;51.462;7.338;2022-12-07T22:47:07;4.30;99.90
6879;DHT22;3478;51.462;7.338;2022-12-07T22:52:10;4.30;99.90
6879;DHT22;3478;51.462;7.338;2022-12-07T22:57:12;4.20;99.90
6879;DHT22;3478;51.462;7.338;2022-12-07T23:02:14;4.20;99.90
6879;DHT22;3478;51.462;7.338;2022-12-07T23:07:17;4.20;99.90
6879;DHT22;3478;51.462;7.338;2022-12-07T23:12:19;4.20;99.90
6879;DHT22;3478;51.462;7.338;2022-12-07T23:17:47;4.20;99.90
6879;DHT22;3478;51.462;7.338;2022-12-07T23:22:50;4.20;99.90
6879;DHT22;3478;51.462;7.338;2022-12-07T23:27:52;4.20;99.90
6879;DHT22;3478;51.462;7.338;2022-12-07T23:32:53;4.20;99.90
6879;DHT22;3478;51.462;7.338;2022-12-07T23:37:57;4.10;99.90
6879;DHT22;3478;51.462;7.338;2022-12-07T23:42:58;4.10;99.90
6879;DHT22;3478;51.462;7.338;2022-12-07T23:48:00;4.10;99.90
6879;DHT22;3478;51.462;7.338;2022-12-07T23:53:03;4.10;99.90
6879;DHT22;3478;51.462;7.338;2022-12-07T23:58:05;4.10;99.90
